Dover Air Force Base Dover US
ICAO: KDOV
IATA: DOV
Category: Large
Scheduled Services: No

Elevation: 24 ft
TransAlt. 18000 ft.

Airport Communications:
APP:132.425
ATIS:135.05
CLNC DEL:125.55
DEP:32.3
GND:118.875
PMSV METRO:34.2
COMD POST:134.1
PTD:134.1
MILLVILLE RDO:111.4
TWR:126.35

KDOV Zoom In..

If Map Doesn't Load, Click Here

Runways:

(A) RW 01 length 9602 ft width 200 ft
ILS 109.95 / hdg 13

(B) RW 14 length 12903 ft width 150 ft
---- / hdg 136

(C) RW 19 length 9602 ft width 200 ft
ILS 111.90 / hdg 193

(D) RW 32 length 12903 ft width 150 ft
---- / hdg 316

Location; KDOV
Day. 23 / Time. 21.45 Zulu
* Altimeter: 30.20
* Temperature: 17° c. 62.6°f.
* Wind from: 050° Speed 05 kn.
Dewpoint: 17° c.
Visibility: 5 Statute Miles.
Clouds: Few 2400 ft.
Clouds: Broken 3100 ft.
Conditions: Light Rain.

KDOV 232145Z AUTO 05005KT 5SM -RA FEW024 BKN031 17/17 A3020 RMK AO2 SLP230 $


Wind From 050°
Speed 05 kn.

 
 
jpsmedia.com for Web Design worldairports.se 2018   terms of use